sensor_id;sensor_type;location;lat;lon;timestamp;temperature;humidity
6552;DHT22;3309;48.708;9.290;2023-12-22T00:01:47;6.60;99.90
6552;DHT22;3309;48.708;9.290;2023-12-22T00:04:12;6.60;99.90
6552;DHT22;3309;48.708;9.290;2023-12-22T00:06:40;6.60;99.90
6552;DHT22;3309;48.708;9.290;2023-12-22T00:09:06;6.60;99.90
6552;DHT22;3309;48.708;9.290;2023-12-22T00:11:32;6.60;99.90
6552;DHT22;3309;48.708;9.290;2023-12-22T00:13:57;6.60;99.90
6552;DHT22;3309;48.708;9.290;2023-12-22T00:16:23;6.60;99.90
6552;DHT22;3309;48.708;9.290;2023-12-22T00:18:48;6.70;99.90
6552;DHT22;3309;48.708;9.290;2023-12-22T00:21:14;6.60;99.90
6552;DHT22;3309;48.708;9.290;2023-12-22T00:23:39;6.70;99.90
6552;DHT22;3309;48.708;9.290;2023-12-22T00:26:05;6.70;99.90
6552;DHT22;3309;48.708;9.290;2023-12-22T00:28:31;6.80;99.90
6552;DHT22;3309;48.708;9.290;2023-12-22T00:30:59;6.90;99.90
6552;DHT22;3309;48.708;9.290;2023-12-22T00:33:25;6.90;99.90
6552;DHT22;3309;48.708;9.290;2023-12-22T00:35:51;7.00;99.90
6552;DHT22;3309;48.708;9.290;2023-12-22T00:38:17;7.10;99.90
6552;DHT22;3309;48.708;9.290;2023-12-22T00:40:42;7.30;99.90
6552;DHT22;3309;48.708;9.290;2023-12-22T00:43:08;7.40;99.30
6552;DHT22;3309;48.708;9.290;2023-12-22T00:45:34;7.40;96.20
6552;DHT22;3309;48.708;9.290;2023-12-22T00:47:59;7.40;99.00
6552;DHT22;3309;48.708;9.290;2023-12-22T00:50:25;7.30;99.90
6552;DHT22;3309;48.708;9.290;2023-12-22T00:52:50;7.40;99.90
6552;DHT22;3309;48.708;9.290;2023-12-22T00:55:16;7.30;99.90
6552;DHT22;3309;48.708;9.290;2023-12-22T00:57:42;7.20;99.90
6552;DHT22;3309;48.708;9.290;2023-12-22T01:00:08;7.10;99.90
6552;DHT22;3309;48.708;9.290;2023-12-22T01:02:37;6.90;99.90
6552;DHT22;3309;48.708;9.290;2023-12-22T01:05:03;6.80;99.90
6552;DHT22;3309;48.708;9.290;2023-12-22T01:07:29;6.80;99.90
6552;DHT22;3309;48.708;9.290;2023-12-22T01:09:54;6.80;99.90
6552;DHT22;3309;48.708;9.290;2023-12-22T01:12:20;6.90;99.90
6552;DHT22;3309;48.708;9.290;2023-12-22T01:14:45;6.90;99.90
6552;DHT22;3309;48.708;9.290;2023-12-22T01:17:11;6.90;99.90
6552;DHT22;3309;48.708;9.290;2023-12-22T01:19:37;6.80;99.90
6552;DHT22;3309;48.708;9.290;2023-12-22T01:22:02;6.90;99.90
6552;DHT22;3309;48.708;9.290;2023-12-22T01:24:28;6.90;99.90
6552;DHT22;3309;48.708;9.290;2023-12-22T01:26:53;6.80;99.90
6552;DHT22;3309;48.708;9.290;2023-12-22T01:29:19;6.80;99.90
6552;DHT22;3309;48.708;9.290;2023-12-22T01:31:45;6.80;99.90
6552;DHT22;3309;48.708;9.290;2023-12-22T01:34:10;6.80;99.90
6552;DHT22;3309;48.708;9.290;2023-12-22T01:36:36;6.80;99.90
6552;DHT22;3309;48.708;9.290;2023-12-22T01:39:02;6.90;99.90
6552;DHT22;3309;48.708;9.290;2023-12-22T01:41:28;7.20;99.90
6552;DHT22;3309;48.708;9.290;2023-12-22T01:43:53;7.10;14.50
6552;DHT22;3309;48.708;9.290;2023-12-22T01:46:19;7.00;33.40
6552;DHT22;3309;48.708;9.290;2023-12-22T01:48:46;6.90;66.10
6552;DHT22;3309;48.708;9.290;2023-12-22T01:51:12;6.90;1.00
6552;DHT22;3309;48.708;9.290;2023-12-22T01:53:37;6.90;1.00
6552;DHT22;3309;48.708;9.290;2023-12-22T01:56:03;7.00;1.00
6552;DHT22;3309;48.708;9.290;2023-12-22T01:58:30;7.10;1.00
6552;DHT22;3309;48.708;9.290;2023-12-22T02:00:58;7.00;1.00
6552;DHT22;3309;48.708;9.290;2023-12-22T02:03:23;7.00;1.00
6552;DHT22;3309;48.708;9.290;2023-12-22T02:05:49;7.00;1.00
6552;DHT22;3309;48.708;9.290;2023-12-22T02:08:17;7.00;1.00
6552;DHT22;3309;48.708;9.290;2023-12-22T02:10:43;7.00;1.00
6552;DHT22;3309;48.708;9.290;2023-12-22T02:13:10;7.00;1.00
6552;DHT22;3309;48.708;9.290;2023-12-22T02:15:36;7.00;1.00
6552;DHT22;3309;48.708;9.290;2023-12-22T02:20:32;7.00;1.00
6552;DHT22;3309;48.708;9.290;2023-12-22T02:22:58;7.00;1.00
6552;DHT22;3309;48.708;9.290;2023-12-22T02:25:23;6.90;1.00
6552;DHT22;3309;48.708;9.290;2023-12-22T02:27:53;6.90;1.00
6552;DHT22;3309;48.708;9.290;2023-12-22T02:30:43;6.90;1.00
6552;DHT22;3309;48.708;9.290;2023-12-22T02:33:15;6.90;1.00
6552;DHT22;3309;48.708;9.290;2023-12-22T02:35:42;7.00;1.00
6552;DHT22;3309;48.708;9.290;2023-12-22T02:38:08;7.00;1.00
6552;DHT22;3309;48.708;9.290;2023-12-22T02:40:34;7.00;1.00
6552;DHT22;3309;48.708;9.290;2023-12-22T02:43:01;7.90;99.90
6552;DHT22;3309;48.708;9.290;2023-12-22T02:45:27;7.00;1.00
6552;DHT22;3309;48.708;9.290;2023-12-22T02:47:53;7.00;99.90
6552;DHT22;3309;48.708;9.290;2023-12-22T02:50:19;7.10;99.90
6552;DHT22;3309;48.708;9.290;2023-12-22T02:52:44;7.00;99.90
6552;DHT22;3309;48.708;9.290;2023-12-22T02:55:10;7.10;98.10
6552;DHT22;3309;48.708;9.290;2023-12-22T02:57:35;7.10;99.90
6552;DHT22;3309;48.708;9.290;2023-12-22T03:00:01;7.10;99.90
6552;DHT22;3309;48.708;9.290;2023-12-22T03:02:26;7.10;99.90
6552;DHT22;3309;48.708;9.290;2023-12-22T03:04:52;7.10;99.90
6552;DHT22;3309;48.708;9.290;2023-12-22T03:07:17;7.20;65.00
6552;DHT22;3309;48.708;9.290;2023-12-22T03:09:43;7.20;99.90
6552;DHT22;3309;48.708;9.290;2023-12-22T03:12:09;7.20;99.90
6552;DHT22;3309;48.708;9.290;2023-12-22T03:14:36;7.30;1.00
6552;DHT22;3309;48.708;9.290;2023-12-22T03:17:03;7.30;1.00
6552;DHT22;3309;48.708;9.290;2023-12-22T03:19:29;7.40;1.00
6552;DHT22;3309;48.708;9.290;2023-12-22T03:21:55;7.40;54.80
6552;DHT22;3309;48.708;9.290;2023-12-22T03:24:22;7.40;1.00
6552;DHT22;3309;48.708;9.290;2023-12-22T03:26:48;7.60;99.90
6552;DHT22;3309;48.708;9.290;2023-12-22T03:29:14;7.20;1.00
6552;DHT22;3309;48.708;9.290;2023-12-22T03:31:40;7.50;99.90
6552;DHT22;3309;48.708;9.290;2023-12-22T03:34:05;7.50;1.00
6552;DHT22;3309;48.708;9.290;2023-12-22T03:36:31;7.40;1.00
6552;DHT22;3309;48.708;9.290;2023-12-22T03:38:57;7.50;1.00
6552;DHT22;3309;48.708;9.290;2023-12-22T03:41:22;7.50;1.00
6552;DHT22;3309;48.708;9.290;2023-12-22T03:43:48;7.50;1.00
6552;DHT22;3309;48.708;9.290;2023-12-22T03:46:13;7.50;1.00
6552;DHT22;3309;48.708;9.290;2023-12-22T03:48:39;7.40;99.90
6552;DHT22;3309;48.708;9.290;2023-12-22T03:51:05;7.40;99.90
6552;DHT22;3309;48.708;9.290;2023-12-22T03:53:30;7.50;1.00
6552;DHT22;3309;48.708;9.290;2023-12-22T03:55:56;7.50;1.00
6552;DHT22;3309;48.708;9.290;2023-12-22T03:58:21;7.40;99.90
6552;DHT22;3309;48.708;9.290;2023-12-22T04:00:47;7.50;99.90
6552;DHT22;3309;48.708;9.290;2023-12-22T04:03:13;7.40;11.30
6552;DHT22;3309;48.708;9.290;2023-12-22T04:05:38;7.40;1.00
6552;DHT22;3309;48.708;9.290;2023-12-22T04:08:05;7.30;99.90
6552;DHT22;3309;48.708;9.290;2023-12-22T04:10:31;7.20;1.00
6552;DHT22;3309;48.708;9.290;2023-12-22T04:12:56;7.10;1.00
6552;DHT22;3309;48.708;9.290;2023-12-22T04:15:22;7.10;1.00
6552;DHT22;3309;48.708;9.290;2023-12-22T04:17:47;7.00;1.00
6552;DHT22;3309;48.708;9.290;2023-12-22T04:20:13;6.90;1.00
6552;DHT22;3309;48.708;9.290;2023-12-22T04:22:39;6.90;1.00
6552;DHT22;3309;48.708;9.290;2023-12-22T04:25:04;6.90;1.00
6552;DHT22;3309;48.708;9.290;2023-12-22T04:27:31;6.80;1.00
6552;DHT22;3309;48.708;9.290;2023-12-22T04:29:57;6.70;38.20
6552;DHT22;3309;48.708;9.290;2023-12-22T04:32:22;6.70;28.10
6552;DHT22;3309;48.708;9.290;2023-12-22T04:34:48;6.70;60.60
6552;DHT22;3309;48.708;9.290;2023-12-22T04:37:13;6.60;99.90
6552;DHT22;3309;48.708;9.290;2023-12-22T04:39:40;6.60;99.90
6552;DHT22;3309;48.708;9.290;2023-12-22T04:42:05;6.60;92.80
6552;DHT22;3309;48.708;9.290;2023-12-22T04:44:31;6.70;1.00
6552;DHT22;3309;48.708;9.290;2023-12-22T04:46:56;6.70;1.00
6552;DHT22;3309;48.708;9.290;2023-12-22T04:49:22;6.70;1.00
6552;DHT22;3309;48.708;9.290;2023-12-22T04:51:47;6.80;1.00
6552;DHT22;3309;48.708;9.290;2023-12-22T04:54:13;6.90;1.00
6552;DHT22;3309;48.708;9.290;2023-12-22T04:56:39;6.90;1.00
6552;DHT22;3309;48.708;9.290;2023-12-22T04:59:04;6.90;1.00
6552;DHT22;3309;48.708;9.290;2023-12-22T05:01:30;6.80;1.00
6552;DHT22;3309;48.708;9.290;2023-12-22T05:03:55;6.90;1.00
6552;DHT22;3309;48.708;9.290;2023-12-22T05:06:21;6.90;1.00
6552;DHT22;3309;48.708;9.290;2023-12-22T05:08:48;6.80;1.00
6552;DHT22;3309;48.708;9.290;2023-12-22T05:11:13;6.90;1.00
6552;DHT22;3309;48.708;9.290;2023-12-22T05:13:39;6.90;1.00
6552;DHT22;3309;48.708;9.290;2023-12-22T05:16:06;6.90;1.00
6552;DHT22;3309;48.708;9.290;2023-12-22T05:18:31;6.90;1.00
6552;DHT22;3309;48.708;9.290;2023-12-22T05:20:57;6.90;1.00
6552;DHT22;3309;48.708;9.290;2023-12-22T05:23:22;7.00;1.00
6552;DHT22;3309;48.708;9.290;2023-12-22T05:25:48;7.00;1.00
6552;DHT22;3309;48.708;9.290;2023-12-22T05:28:13;7.10;1.00
6552;DHT22;3309;48.708;9.290;2023-12-22T05:30:39;7.10;1.00
6552;DHT22;3309;48.708;9.290;2023-12-22T05:33:04;7.10;99.90
6552;DHT22;3309;48.708;9.290;2023-12-22T05:35:30;7.10;99.90
6552;DHT22;3309;48.708;9.290;2023-12-22T05:37:56;7.20;1.00
6552;DHT22;3309;48.708;9.290;2023-12-22T05:40:22;7.20;1.00
6552;DHT22;3309;48.708;9.290;2023-12-22T05:42:47;7.20;99.90
6552;DHT22;3309;48.708;9.290;2023-12-22T05:45:14;7.10;1.00
6552;DHT22;3309;48.708;9.290;2023-12-22T05:47:39;7.00;1.00
6552;DHT22;3309;48.708;9.290;2023-12-22T05:50:05;6.90;1.00
6552;DHT22;3309;48.708;9.290;2023-12-22T05:52:31;6.90;1.00
6552;DHT22;3309;48.708;9.290;2023-12-22T05:54:57;6.90;1.00
6552;DHT22;3309;48.708;9.290;2023-12-22T05:57:25;6.90;1.00
6552;DHT22;3309;48.708;9.290;2023-12-22T05:59:50;7.10;1.00
6552;DHT22;3309;48.708;9.290;2023-12-22T06:02:16;7.20;99.90
6552;DHT22;3309;48.708;9.290;2023-12-22T06:04:41;7.20;99.90
6552;DHT22;3309;48.708;9.290;2023-12-22T06:07:07;7.20;1.00
6552;DHT22;3309;48.708;9.290;2023-12-22T06:09:32;7.30;1.00
6552;DHT22;3309;48.708;9.290;2023-12-22T06:11:58;7.40;1.00
6552;DHT22;3309;48.708;9.290;2023-12-22T06:14:23;7.40;99.90
6552;DHT22;3309;48.708;9.290;2023-12-22T06:16:49;7.50;1.00
6552;DHT22;3309;48.708;9.290;2023-12-22T06:19:16;7.40;99.90
6552;DHT22;3309;48.708;9.290;2023-12-22T06:21:42;7.40;1.00
6552;DHT22;3309;48.708;9.290;2023-12-22T06:24:07;7.50;99.90
6552;DHT22;3309;48.708;9.290;2023-12-22T06:26:33;7.40;99.90
6552;DHT22;3309;48.708;9.290;2023-12-22T06:28:59;7.40;1.00
6552;DHT22;3309;48.708;9.290;2023-12-22T06:31:25;7.50;99.90
6552;DHT22;3309;48.708;9.290;2023-12-22T06:33:51;7.40;1.00
6552;DHT22;3309;48.708;9.290;2023-12-22T06:36:21;7.50;1.00
6552;DHT22;3309;48.708;9.290;2023-12-22T06:38:55;7.50;99.90
6552;DHT22;3309;48.708;9.290;2023-12-22T06:43:50;7.50;1.00
6552;DHT22;3309;48.708;9.290;2023-12-22T06:46:20;7.40;88.60
6552;DHT22;3309;48.708;9.290;2023-12-22T06:48:47;7.50;1.00
6552;DHT22;3309;48.708;9.290;2023-12-22T06:51:27;7.50;1.00
6552;DHT22;3309;48.708;9.290;2023-12-22T06:53:54;7.50;1.00
6552;DHT22;3309;48.708;9.290;2023-12-22T06:56:27;7.50;99.90
6552;DHT22;3309;48.708;9.290;2023-12-22T06:58:54;7.50;1.00
6552;DHT22;3309;48.708;9.290;2023-12-22T07:01:32;7.50;99.90
6552;DHT22;3309;48.708;9.290;2023-12-22T07:03:59;7.50;1.00
6552;DHT22;3309;48.708;9.290;2023-12-22T07:06:30;7.50;1.00
6552;DHT22;3309;48.708;9.290;2023-12-22T07:11:41;7.50;1.00
6552;DHT22;3309;48.708;9.290;2023-12-22T07:14:07;7.50;13.70
6552;DHT22;3309;48.708;9.290;2023-12-22T07:16:34;7.40;1.00
6552;DHT22;3309;48.708;9.290;2023-12-22T07:18:59;7.30;1.00
6552;DHT22;3309;48.708;9.290;2023-12-22T07:21:26;7.30;1.00
6552;DHT22;3309;48.708;9.290;2023-12-22T07:23:51;7.20;1.00
6552;DHT22;3309;48.708;9.290;2023-12-22T07:26:17;7.20;1.00
6552;DHT22;3309;48.708;9.290;2023-12-22T07:28:43;7.20;1.00
6552;DHT22;3309;48.708;9.290;2023-12-22T07:31:08;7.20;1.00
6552;DHT22;3309;48.708;9.290;2023-12-22T07:33:34;7.20;1.00
6552;DHT22;3309;48.708;9.290;2023-12-22T07:35:59;7.20;1.00
6552;DHT22;3309;48.708;9.290;2023-12-22T07:38:25;7.20;1.00
6552;DHT22;3309;48.708;9.290;2023-12-22T07:40:50;7.20;1.00
6552;DHT22;3309;48.708;9.290;2023-12-22T07:43:16;7.40;1.00
6552;DHT22;3309;48.708;9.290;2023-12-22T07:45:42;7.50;1.00
6552;DHT22;3309;48.708;9.290;2023-12-22T07:48:08;7.50;1.00
6552;DHT22;3309;48.708;9.290;2023-12-22T07:50:33;7.40;1.00
6552;DHT22;3309;48.708;9.290;2023-12-22T07:52:59;7.50;1.00
6552;DHT22;3309;48.708;9.290;2023-12-22T07:55:25;7.40;1.00
6552;DHT22;3309;48.708;9.290;2023-12-22T07:57:51;7.20;1.00
6552;DHT22;3309;48.708;9.290;2023-12-22T08:00:17;7.00;1.00
6552;DHT22;3309;48.708;9.290;2023-12-22T08:02:43;7.10;1.00
6552;DHT22;3309;48.708;9.290;2023-12-22T08:05:09;7.10;1.00
6552;DHT22;3309;48.708;9.290;2023-12-22T08:07:36;6.90;9.50
6552;DHT22;3309;48.708;9.290;2023-12-22T08:10:02;6.90;93.40
6552;DHT22;3309;48.708;9.290;2023-12-22T08:12:28;6.70;99.90
6552;DHT22;3309;48.708;9.290;2023-12-22T08:14:54;6.70;99.90
6552;DHT22;3309;48.708;9.290;2023-12-22T08:17:20;6.70;99.90
6552;DHT22;3309;48.708;9.290;2023-12-22T08:19:45;6.70;99.90
6552;DHT22;3309;48.708;9.290;2023-12-22T08:22:11;6.70;99.90
6552;DHT22;3309;48.708;9.290;2023-12-22T08:24:38;6.80;99.90
6552;DHT22;3309;48.708;9.290;2023-12-22T08:27:05;6.80;99.90
6552;DHT22;3309;48.708;9.290;2023-12-22T08:29:31;6.70;99.90
6552;DHT22;3309;48.708;9.290;2023-12-22T08:31:57;6.70;99.90
6552;DHT22;3309;48.708;9.290;2023-12-22T08:34:22;6.60;99.90
6552;DHT22;3309;48.708;9.290;2023-12-22T08:36:48;6.60;99.90
6552;DHT22;3309;48.708;9.290;2023-12-22T08:39:14;6.60;99.90
6552;DHT22;3309;48.708;9.290;2023-12-22T08:41:39;6.90;99.90
6552;DHT22;3309;48.708;9.290;2023-12-22T08:44:05;6.90;99.90
6552;DHT22;3309;48.708;9.290;2023-12-22T08:46:31;6.90;86.60
6552;DHT22;3309;48.708;9.290;2023-12-22T08:48:57;7.00;60.70
6552;DHT22;3309;48.708;9.290;2023-12-22T08:51:27;7.00;86.60
6552;DHT22;3309;48.708;9.290;2023-12-22T08:53:56;7.10;36.00
6552;DHT22;3309;48.708;9.290;2023-12-22T08:56:22;7.10;46.70
6552;DHT22;3309;48.708;9.290;2023-12-22T08:58:48;7.10;22.60
6552;DHT22;3309;48.708;9.290;2023-12-22T09:01:17;7.60;76.50
6552;DHT22;3309;48.708;9.290;2023-12-22T09:03:43;7.40;1.00
6552;DHT22;3309;48.708;9.290;2023-12-22T09:06:14;7.20;22.10
6552;DHT22;3309;48.708;9.290;2023-12-22T09:08:41;7.20;9.00
6552;DHT22;3309;48.708;9.290;2023-12-22T09:11:06;7.20;35.30
6552;DHT22;3309;48.708;9.290;2023-12-22T09:13:32;7.10;23.40
6552;DHT22;3309;48.708;9.290;2023-12-22T09:15:58;7.10;42.00
6552;DHT22;3309;48.708;9.290;2023-12-22T09:18:24;7.10;25.50
6552;DHT22;3309;48.708;9.290;2023-12-22T09:20:49;7.10;1.00
6552;DHT22;3309;48.708;9.290;2023-12-22T09:23:15;7.20;1.00
6552;DHT22;3309;48.708;9.290;2023-12-22T09:25:40;7.20;11.30
6552;DHT22;3309;48.708;9.290;2023-12-22T09:28:06;7.20;1.00
6552;DHT22;3309;48.708;9.290;2023-12-22T09:30:31;7.30;1.00
6552;DHT22;3309;48.708;9.290;2023-12-22T09:32:57;7.30;1.00
6552;DHT22;3309;48.708;9.290;2023-12-22T09:35:23;7.30;1.00
6552;DHT22;3309;48.708;9.290;2023-12-22T09:37:50;7.40;1.00
6552;DHT22;3309;48.708;9.290;2023-12-22T09:40:16;7.40;1.00
6552;DHT22;3309;48.708;9.290;2023-12-22T09:42:42;7.40;1.00
6552;DHT22;3309;48.708;9.290;2023-12-22T09:45:11;7.50;1.00
6552;DHT22;3309;48.708;9.290;2023-12-22T09:47:41;7.50;1.00
6552;DHT22;3309;48.708;9.290;2023-12-22T09:50:09;7.60;1.00
6552;DHT22;3309;48.708;9.290;2023-12-22T09:52:35;7.60;1.00
6552;DHT22;3309;48.708;9.290;2023-12-22T09:55:03;7.60;1.00
6552;DHT22;3309;48.708;9.290;2023-12-22T09:57:30;7.60;1.00
6552;DHT22;3309;48.708;9.290;2023-12-22T09:59:57;7.60;1.00
6552;DHT22;3309;48.708;9.290;2023-12-22T10:02:25;7.60;1.00
6552;DHT22;3309;48.708;9.290;2023-12-22T10:04:52;7.60;1.00
6552;DHT22;3309;48.708;9.290;2023-12-22T10:07:19;7.60;1.00
6552;DHT22;3309;48.708;9.290;2023-12-22T10:09:46;7.60;1.00
6552;DHT22;3309;48.708;9.290;2023-12-22T10:12:13;7.70;99.90
6552;DHT22;3309;48.708;9.290;2023-12-22T10:14:40;7.70;1.00
6552;DHT22;3309;48.708;9.290;2023-12-22T10:17:06;7.60;1.00
6552;DHT22;3309;48.708;9.290;2023-12-22T10:19:32;7.70;99.90
6552;DHT22;3309;48.708;9.290;2023-12-22T10:21:57;7.70;99.90
6552;DHT22;3309;48.708;9.290;2023-12-22T10:24:56;7.70;99.90
6552;DHT22;3309;48.708;9.290;2023-12-22T10:27:21;7.70;99.90
6552;DHT22;3309;48.708;9.290;2023-12-22T10:29:53;7.80;43.00
6552;DHT22;3309;48.708;9.290;2023-12-22T10:32:20;7.90;51.40
6552;DHT22;3309;48.708;9.290;2023-12-22T10:34:46;7.90;1.00
6552;DHT22;3309;48.708;9.290;2023-12-22T10:37:12;7.90;1.00
6552;DHT22;3309;48.708;9.290;2023-12-22T10:39:38;7.90;1.00
6552;DHT22;3309;48.708;9.290;2023-12-22T10:42:04;7.90;1.00
6552;DHT22;3309;48.708;9.290;2023-12-22T10:44:30;7.90;1.00
6552;DHT22;3309;48.708;9.290;2023-12-22T10:46:58;8.00;99.90
6552;DHT22;3309;48.708;9.290;2023-12-22T10:49:24;8.00;1.00
6552;DHT22;3309;48.708;9.290;2023-12-22T10:51:50;7.90;99.90
6552;DHT22;3309;48.708;9.290;2023-12-22T10:54:17;7.90;99.90
6552;DHT22;3309;48.708;9.290;2023-12-22T10:56:44;7.90;1.00
6552;DHT22;3309;48.708;9.290;2023-12-22T10:59:10;8.00;1.00
6552;DHT22;3309;48.708;9.290;2023-12-22T11:01:37;7.90;99.90
6552;DHT22;3309;48.708;9.290;2023-12-22T11:04:06;7.90;1.00
6552;DHT22;3309;48.708;9.290;2023-12-22T11:06:36;8.00;99.90
6552;DHT22;3309;48.708;9.290;2023-12-22T11:09:09;8.00;1.00
6552;DHT22;3309;48.708;9.290;2023-12-22T11:11:39;8.00;1.00
6552;DHT22;3309;48.708;9.290;2023-12-22T11:14:06;7.90;1.00
6552;DHT22;3309;48.708;9.290;2023-12-22T11:16:33;8.00;1.00
6552;DHT22;3309;48.708;9.290;2023-12-22T11:19:03;8.00;1.00
6552;DHT22;3309;48.708;9.290;2023-12-22T11:21:29;7.90;1.00
6552;DHT22;3309;48.708;9.290;2023-12-22T11:23:56;7.80;1.00
6552;DHT22;3309;48.708;9.290;2023-12-22T11:26:23;7.70;1.00
6552;DHT22;3309;48.708;9.290;2023-12-22T11:28:50;7.60;1.00
6552;DHT22;3309;48.708;9.290;2023-12-22T11:31:17;7.50;1.00
6552;DHT22;3309;48.708;9.290;2023-12-22T11:33:44;7.50;1.00
6552;DHT22;3309;48.708;9.290;2023-12-22T11:36:12;7.30;1.00
6552;DHT22;3309;48.708;9.290;2023-12-22T11:38:42;7.40;68.80
6552;DHT22;3309;48.708;9.290;2023-12-22T11:41:14;7.30;94.40
6552;DHT22;3309;48.708;9.290;2023-12-22T11:43:42;7.20;99.90
6552;DHT22;3309;48.708;9.290;2023-12-22T11:46:08;7.20;99.90
6552;DHT22;3309;48.708;9.290;2023-12-22T11:48:34;7.10;99.90
6552;DHT22;3309;48.708;9.290;2023-12-22T11:51:00;7.20;99.90
6552;DHT22;3309;48.708;9.290;2023-12-22T11:53:30;7.00;99.90
6552;DHT22;3309;48.708;9.290;2023-12-22T12:01:05;6.90;99.90
6552;DHT22;3309;48.708;9.290;2023-12-22T12:03:31;7.00;99.90
6552;DHT22;3309;48.708;9.290;2023-12-22T12:06:21;6.90;99.90
6552;DHT22;3309;48.708;9.290;2023-12-22T12:08:47;6.90;99.90
6552;DHT22;3309;48.708;9.290;2023-12-22T12:11:14;6.90;99.90
6552;DHT22;3309;48.708;9.290;2023-12-22T12:13:44;6.90;99.90
6552;DHT22;3309;48.708;9.290;2023-12-22T12:16:11;7.00;99.90
6552;DHT22;3309;48.708;9.290;2023-12-22T12:18:37;7.00;99.90
6552;DHT22;3309;48.708;9.290;2023-12-22T12:21:03;7.00;99.90
6552;DHT22;3309;48.708;9.290;2023-12-22T12:23:28;7.00;99.90
6552;DHT22;3309;48.708;9.290;2023-12-22T12:25:55;7.10;99.90
6552;DHT22;3309;48.708;9.290;2023-12-22T12:28:32;7.10;99.90
6552;DHT22;3309;48.708;9.290;2023-12-22T12:31:00;7.10;99.90
6552;DHT22;3309;48.708;9.290;2023-12-22T12:33:26;7.10;99.90
6552;DHT22;3309;48.708;9.290;2023-12-22T12:35:57;7.10;99.90
6552;DHT22;3309;48.708;9.290;2023-12-22T12:38:36;7.10;99.90
6552;DHT22;3309;48.708;9.290;2023-12-22T12:41:05;7.10;99.90
6552;DHT22;3309;48.708;9.290;2023-12-22T12:43:31;7.10;99.90
6552;DHT22;3309;48.708;9.290;2023-12-22T12:46:05;7.20;99.90
6552;DHT22;3309;48.708;9.290;2023-12-22T12:48:31;7.20;99.90
6552;DHT22;3309;48.708;9.290;2023-12-22T12:51:04;7.10;99.90
6552;DHT22;3309;48.708;9.290;2023-12-22T12:53:33;7.10;99.90
6552;DHT22;3309;48.708;9.290;2023-12-22T12:56:00;7.10;99.90
6552;DHT22;3309;48.708;9.290;2023-12-22T12:58:29;7.10;99.90
6552;DHT22;3309;48.708;9.290;2023-12-22T13:01:22;7.20;99.90
6552;DHT22;3309;48.708;9.290;2023-12-22T13:03:55;7.20;99.90
6552;DHT22;3309;48.708;9.290;2023-12-22T13:06:21;7.20;99.90
6552;DHT22;3309;48.708;9.290;2023-12-22T13:08:49;7.20;99.90
6552;DHT22;3309;48.708;9.290;2023-12-22T13:11:19;7.20;99.90
6552;DHT22;3309;48.708;9.290;2023-12-22T13:13:45;7.20;99.90
6552;DHT22;3309;48.708;9.290;2023-12-22T13:16:11;7.30;99.90
6552;DHT22;3309;48.708;9.290;2023-12-22T13:18:37;7.30;99.90
6552;DHT22;3309;48.708;9.290;2023-12-22T13:21:02;7.40;99.90
6552;DHT22;3309;48.708;9.290;2023-12-22T13:23:28;7.50;99.90
6552;DHT22;3309;48.708;9.290;2023-12-22T13:25:54;7.60;99.90
6552;DHT22;3309;48.708;9.290;2023-12-22T13:28:29;8.10;99.90
6552;DHT22;3309;48.708;9.290;2023-12-22T13:30:55;7.80;99.90
6552;DHT22;3309;48.708;9.290;2023-12-22T13:33:21;7.80;99.90
6552;DHT22;3309;48.708;9.290;2023-12-22T13:35:47;7.80;99.90
6552;DHT22;3309;48.708;9.290;2023-12-22T13:38:13;7.80;99.90
6552;DHT22;3309;48.708;9.290;2023-12-22T13:40:44;7.90;99.90
6552;DHT22;3309;48.708;9.290;2023-12-22T13:43:10;7.90;99.90
6552;DHT22;3309;48.708;9.290;2023-12-22T13:45:36;8.00;99.90
6552;DHT22;3309;48.708;9.290;2023-12-22T13:48:02;8.00;99.90
6552;DHT22;3309;48.708;9.290;2023-12-22T13:50:27;8.00;99.90
6552;DHT22;3309;48.708;9.290;2023-12-22T13:52:53;8.00;99.90
6552;DHT22;3309;48.708;9.290;2023-12-22T13:55:20;8.10;99.90
6552;DHT22;3309;48.708;9.290;2023-12-22T13:57:48;8.10;99.90
6552;DHT22;3309;48.708;9.290;2023-12-22T14:02:49;8.10;99.90
6552;DHT22;3309;48.708;9.290;2023-12-22T14:05:15;8.20;99.90
6552;DHT22;3309;48.708;9.290;2023-12-22T14:07:43;8.20;99.90
6552;DHT22;3309;48.708;9.290;2023-12-22T14:10:09;8.20;99.90
6552;DHT22;3309;48.708;9.290;2023-12-22T14:12:36;8.20;99.90
6552;DHT22;3309;48.708;9.290;2023-12-22T14:15:05;8.40;99.90
6552;DHT22;3309;48.708;9.290;2023-12-22T14:17:32;8.40;99.90
6552;DHT22;3309;48.708;9.290;2023-12-22T14:19:57;8.50;99.90
6552;DHT22;3309;48.708;9.290;2023-12-22T14:22:23;8.50;99.90
6552;DHT22;3309;48.708;9.290;2023-12-22T14:24:48;8.60;99.90
6552;DHT22;3309;48.708;9.290;2023-12-22T14:27:14;8.60;95.90
6552;DHT22;3309;48.708;9.290;2023-12-22T14:29:41;8.70;92.20
6552;DHT22;3309;48.708;9.290;2023-12-22T14:32:06;8.70;96.80
6552;DHT22;3309;48.708;9.290;2023-12-22T14:34:34;8.70;66.30
6552;DHT22;3309;48.708;9.290;2023-12-22T14:36:59;8.70;68.00
6552;DHT22;3309;48.708;9.290;2023-12-22T14:39:26;8.80;67.00
6552;DHT22;3309;48.708;9.290;2023-12-22T14:41:52;8.80;56.60
6552;DHT22;3309;48.708;9.290;2023-12-22T14:44:19;9.00;40.40
6552;DHT22;3309;48.708;9.290;2023-12-22T14:46:44;8.90;31.20
6552;DHT22;3309;48.708;9.290;2023-12-22T14:49:11;8.90;32.00
6552;DHT22;3309;48.708;9.290;2023-12-22T14:51:39;8.90;27.40
6552;DHT22;3309;48.708;9.290;2023-12-22T14:54:06;8.90;19.20
6552;DHT22;3309;48.708;9.290;2023-12-22T14:56:32;9.00;1.00
6552;DHT22;3309;48.708;9.290;2023-12-22T14:58:58;9.00;1.00
6552;DHT22;3309;48.708;9.290;2023-12-22T15:01:24;9.10;1.00
6552;DHT22;3309;48.708;9.290;2023-12-22T15:03:52;8.90;1.00
6552;DHT22;3309;48.708;9.290;2023-12-22T15:06:17;9.10;1.00
6552;DHT22;3309;48.708;9.290;2023-12-22T15:08:44;9.10;1.00
6552;DHT22;3309;48.708;9.290;2023-12-22T15:11:10;9.10;1.00
6552;DHT22;3309;48.708;9.290;2023-12-22T15:13:37;9.30;1.00
6552;DHT22;3309;48.708;9.290;2023-12-22T15:16:06;9.50;1.00
6552;DHT22;3309;48.708;9.290;2023-12-22T15:18:32;9.30;1.00
6552;DHT22;3309;48.708;9.290;2023-12-22T15:20:59;9.20;1.00
6552;DHT22;3309;48.708;9.290;2023-12-22T15:23:25;9.10;1.00
6552;DHT22;3309;48.708;9.290;2023-12-22T15:25:51;9.10;1.00
6552;DHT22;3309;48.708;9.290;2023-12-22T15:28:18;9.20;1.00
6552;DHT22;3309;48.708;9.290;2023-12-22T15:30:44;9.20;1.00
6552;DHT22;3309;48.708;9.290;2023-12-22T15:33:09;9.20;1.00
6552;DHT22;3309;48.708;9.290;2023-12-22T15:35:35;9.20;1.00
6552;DHT22;3309;48.708;9.290;2023-12-22T15:38:01;9.20;1.00
6552;DHT22;3309;48.708;9.290;2023-12-22T15:40:26;9.10;1.00
6552;DHT22;3309;48.708;9.290;2023-12-22T15:42:52;9.10;1.00
6552;DHT22;3309;48.708;9.290;2023-12-22T15:45:19;9.10;1.00
6552;DHT22;3309;48.708;9.290;2023-12-22T15:47:45;9.10;1.00
6552;DHT22;3309;48.708;9.290;2023-12-22T15:50:10;9.20;1.00
6552;DHT22;3309;48.708;9.290;2023-12-22T15:52:36;9.10;1.00
6552;DHT22;3309;48.708;9.290;2023-12-22T15:55:02;9.20;1.00
6552;DHT22;3309;48.708;9.290;2023-12-22T15:57:27;9.20;1.00
6552;DHT22;3309;48.708;9.290;2023-12-22T15:59:54;9.20;1.00
6552;DHT22;3309;48.708;9.290;2023-12-22T16:02:19;9.20;1.00
6552;DHT22;3309;48.708;9.290;2023-12-22T16:04:45;9.30;1.00
6552;DHT22;3309;48.708;9.290;2023-12-22T16:07:11;9.40;1.00
6552;DHT22;3309;48.708;9.290;2023-12-22T16:09:37;9.30;1.00
6552;DHT22;3309;48.708;9.290;2023-12-22T16:12:02;9.40;1.00
6552;DHT22;3309;48.708;9.290;2023-12-22T16:14:29;9.40;1.00
6552;DHT22;3309;48.708;9.290;2023-12-22T16:16:57;9.30;1.00
6552;DHT22;3309;48.708;9.290;2023-12-22T16:19:23;9.30;1.00
6552;DHT22;3309;48.708;9.290;2023-12-22T16:21:48;9.30;1.00
6552;DHT22;3309;48.708;9.290;2023-12-22T16:24:21;9.30;1.00
6552;DHT22;3309;48.708;9.290;2023-12-22T16:26:47;9.30;1.00
6552;DHT22;3309;48.708;9.290;2023-12-22T16:29:13;9.30;1.00
6552;DHT22;3309;48.708;9.290;2023-12-22T16:31:39;9.30;1.00
6552;DHT22;3309;48.708;9.290;2023-12-22T16:34:05;9.30;1.00
6552;DHT22;3309;48.708;9.290;2023-12-22T16:36:31;9.40;1.00
6552;DHT22;3309;48.708;9.290;2023-12-22T16:38:57;9.30;1.00